Cherry Grove, Oregon
Current Conditions -  °F | °C
As of 5:24 PM on Saturday 25 Oct 2014 (Local Time) from KHIO Reporting Station
Light Rain Light Rain  
Wind Chill: 58°   Ceiling: 6500
Heat Index: 58°   Visibility: 10mi
Dew Point: 54°   Wind: 15mph
Humidity: 87%   Direction: 220°SW
Pressure: 29.47"   Gusts: 31mph
Location:  45.45°N, 123.24°W
Report Text: KHIO 260024Z 22013G27KT 10SM -RA SCT019 BKN065 OVC090 14/12 A2947 RMK AO2 PK WND 22028/0009 PRESRR P0002 T01440122
Loading
Personal Weather Stations






























Interactive Weather Map New forecast layout! Learn more

10-Day Weather Forecast

Advertisements
Track Severe Weather on mobile